Time;durP1;ratioP1;P1;durP2;ratioP2;P2;SDS_P1;SDS_P2;PMS_P1;PMS_P2;Temp;Humidity;BMP_temperature;BMP_pressure;BME280_temperature;BME280_humidity;BME280_pressure;Samples;Min_cycle;Max_cycle;Signal;HPM_P1;HPM_P2
2021/01/27 00:01:34;;;;;;;8.00;4.22;;;;;;;2.10;74.72;101334.47;5086164;28;20074;-68
2021/01/27 00:03:59;;;;;;;13.73;5.80;;;;;;;2.10;75.02;101329.34;5084362;28;20097;-67
2021/01/27 00:06:25;;;;;;;10.15;5.03;;;;;;;2.13;75.17;101323.41;5084538;28;20461;-67
2021/01/27 00:08:51;;;;;;;14.65;5.53;;;;;;;2.05;75.17;101323.22;5081563;28;20132;-67
2021/01/27 00:11:17;;;;;;;9.32;4.65;;;;;;;2.09;74.81;101325.03;5085372;28;20400;-68
2021/01/27 00:13:43;;;;;;;11.80;4.75;;;;;;;2.13;73.96;101323.41;5087776;28;20048;-67
2021/01/27 00:16:10;;;;;;;9.75;5.20;;;;;;;2.13;73.79;101321.72;5084299;28;20048;-67
2021/01/27 00:18:36;;;;;;;9.13;4.82;;;;;;;2.09;74.09;101322.47;5089912;28;20422;-67
2021/01/27 00:21:02;;;;;;;10.60;5.13;;;;;;;2.10;74.23;101316.50;5085618;28;20044;-67
2021/01/27 00:23:28;;;;;;;8.48;4.70;;;;;;;2.10;74.72;101308.81;5082259;28;20400;-68
2021/01/27 00:25:54;;;;;;;8.27;4.00;;;;;;;2.06;74.25;101309.56;5085038;28;20043;-68
2021/01/27 00:28:19;;;;;;;15.23;4.68;;;;;;;2.06;73.90;101308.69;5086678;28;20052;-67
2021/01/27 00:30:45;;;;;;;9.68;4.53;;;;;;;2.02;74.10;101302.63;5085331;28;20048;-68
2021/01/27 00:33:15;;;;;;;10.20;5.10;;;;;;;1.95;74.00;101293.91;5087709;28;20094;-67
2021/01/27 00:35:42;;;;;;;10.35;4.95;;;;;;;1.97;74.19;101286.22;5084150;28;20063;-67
2021/01/27 00:38:12;;;;;;;9.30;4.85;;;;;;;1.95;74.07;101277.63;5083270;28;20052;-67
2021/01/27 00:40:38;;;;;;;10.63;4.72;;;;;;;1.92;74.04;101264.75;5080564;28;20494;-67
2021/01/27 00:43:04;;;;;;;9.57;4.72;;;;;;;1.89;73.50;101270.69;5085399;28;20048;-67
2021/01/27 00:45:30;;;;;;;8.07;4.60;;;;;;;1.89;72.98;101280.06;5084198;28;20526;-66
2021/01/27 00:50:31;;;;;;;9.15;4.43;;;;;;;1.80;73.39;101286.69;5061035;28;20052;-67
2021/01/27 00:52:57;;;;;;;7.60;4.25;;;;;;;1.88;73.41;101291.13;5070177;28;20056;-67
2021/01/27 00:55:26;;;;;;;9.13;4.53;;;;;;;1.89;73.27;101291.19;5076666;28;20056;-68
2021/01/27 00:57:52;;;;;;;12.55;4.00;;;;;;;1.85;73.05;101286.81;5079286;28;20044;-67
2021/01/27 01:00:21;;;;;;;8.95;4.38;;;;;;;1.89;72.04;101278.38;5057697;28;20048;-68
2021/01/27 01:02:47;;;;;;;6.97;3.83;;;;;;;1.87;71.54;101282.59;5049408;28;20041;-68
2021/01/27 01:05:18;;;;;;;11.18;3.80;;;;;;;1.86;72.29;101281.69;5043325;28;20055;-66
2021/01/27 01:07:46;;;;;;;10.00;4.38;;;;;;;1.88;72.33;101279.19;5047605;28;20052;-67
2021/01/27 01:10:13;;;;;;;9.40;4.40;;;;;;;1.88;72.32;101270.63;5051391;28;20083;-67
2021/01/27 01:12:39;;;;;;;8.93;3.65;;;;;;;1.89;70.55;101277.47;5052013;28;20057;-68
2021/01/27 01:15:07;;;;;;;8.52;4.28;;;;;;;1.87;70.86;101274.88;5052609;28;20063;-67
2021/01/27 01:17:32;;;;;;;10.43;3.63;;;;;;;1.86;71.18;101281.69;5047340;28;20060;-69
2021/01/27 01:19:58;;;;;;;8.38;3.80;;;;;;;1.90;71.69;101279.22;5053845;28;20045;-69
2021/01/27 01:22:25;;;;;;;10.68;4.22;;;;;;;1.91;71.83;101281.81;5052384;28;20094;-68
2021/01/27 01:24:52;;;;;;;9.65;4.25;;;;;;;1.94;70.95;101276.78;5038149;28;20136;-69
2021/01/27 01:27:18;;;;;;;9.40;4.30;;;;;;;1.92;71.12;101275.84;5047406;28;20044;-71
2021/01/27 01:29:44;;;;;;;8.93;3.53;;;;;;;1.91;71.83;101283.53;5048056;28;20060;-67
2021/01/27 01:32:10;;;;;;;10.18;3.83;;;;;;;1.96;71.91;101281.94;5044804;28;20137;-68
2021/01/27 01:34:36;;;;;;;6.57;3.75;;;;;;;2.01;71.20;101280.38;5050254;28;20056;-68
2021/01/27 01:37:02;;;;;;;8.43;3.72;;;;;;;1.96;70.99;101276.78;5038431;28;20040;-70
2021/01/27 01:39:28;;;;;;;11.40;4.07;;;;;;;2.00;69.86;101276.91;5038823;28;20076;-73
2021/01/27 01:41:54;;;;;;;7.10;3.28;;;;;;;2.06;70.39;101276.19;5032828;28;20496;-70
2021/01/27 01:44:21;;;;;;;10.05;3.17;;;;;;;1.95;70.31;101278.50;5047744;28;20098;-68
2021/01/27 01:46:47;;;;;;;9.02;3.67;;;;;;;1.96;70.45;101275.13;5041532;28;20049;-68
2021/01/27 01:49:14;;;;;;;11.32;4.32;;;;;;;1.99;70.34;101280.34;5050426;28;20052;-67
2021/01/27 01:51:45;;;;;;;15.18;4.50;;;;;;;1.96;70.54;101275.13;5050823;28;20049;-68
2021/01/27 01:54:17;;;;;;;5.95;3.17;;;;;;;1.97;70.54;101269.16;5036059;28;20504;-69
2021/01/27 01:56:52;;;;;;;5.93;3.00;;;;;;;2.02;70.89;101249.59;5046084;28;20046;-68
2021/01/27 01:59:19;;;;;;;7.80;3.33;;;;;;;2.18;69.25;101245.69;5050971;28;20041;-68
2021/01/27 02:01:48;;;;;;;7.70;2.97;;;;;;;2.10;69.08;101249.78;5048006;28;20041;-67
2021/01/27 02:04:14;;;;;;;6.05;3.00;;;;;;;1.99;69.17;101239.28;5042358;28;20054;-68
2021/01/27 02:06:40;;;;;;;8.95;3.03;;;;;;;2.02;69.55;101244.47;5041458;28;20101;-68
2021/01/27 02:09:06;;;;;;;6.55;2.67;;;;;;;2.16;68.86;101231.97;5051260;28;20049;-67
2021/01/27 02:11:49;;;;;;;5.57;2.72;;;;;;;2.01;69.30;101226.47;5049085;28;20495;-69
2021/01/27 02:14:44;;;;;;;6.15;2.58;;;;;;;2.05;70.30;101224.84;5044241;28;20050;-66
2021/01/27 02:17:23;;;;;;;6.57;2.58;;;;;;;2.15;69.93;101217.41;5030727;28;20451;-68
2021/01/27 02:20:33;;;;;;;6.28;2.95;;;;;;;2.11;69.92;101218.16;5048453;28;20049;-69
2021/01/27 02:23:49;;;;;;;6.50;2.60;;;;;;;2.11;71.44;101209.59;5044302;28;20049;-68
2021/01/27 02:26:52;;;;;;;7.20;2.37;;;;;;;2.05;71.35;101212.88;5046425;28;20057;-69
2021/01/27 02:29:35;;;;;;;6.63;2.50;;;;;;;2.05;71.67;101215.44;5004207;28;20099;-68
2021/01/27 02:32:18;;;;;;;7.82;2.45;;;;;;;2.06;71.80;101213.75;5037071;28;20049;-68
2021/01/27 02:34:59;;;;;;;5.45;2.40;;;;;;;2.07;71.98;101213.78;5050551;28;20045;-67
2021/01/27 02:37:31;;;;;;;5.88;2.40;;;;;;;2.16;72.59;101211.44;5038882;28;20056;-68
2021/01/27 02:40:02;;;;;;;7.18;2.78;;;;;;;2.04;72.15;101208.59;5048911;28;20063;-68
2021/01/27 02:42:35;;;;;;;5.32;2.33;;;;;;;1.96;73.34;101202.41;5048988;28;20057;-68
2021/01/27 02:45:09;;;;;;;7.75;2.42;;;;;;;1.99;73.84;101189.66;5050526;28;20056;-68
2021/01/27 02:47:43;;;;;;;6.23;2.10;;;;;;;1.98;73.78;101183.66;5043706;28;20045;-68
2021/01/27 02:50:13;;;;;;;8.55;3.33;;;;;;;2.04;74.19;101179.50;5049640;28;20295;-68
2021/01/27 02:52:45;;;;;;;6.47;2.75;;;;;;;2.06;73.02;101173.56;5032663;28;20053;-69
2021/01/27 02:55:16;;;;;;;5.20;2.47;;;;;;;1.95;73.42;101172.44;5030540;28;20049;-68
2021/01/27 02:57:48;;;;;;;7.50;2.90;;;;;;;1.89;73.77;101159.47;5042229;28;20064;-68
2021/01/27 03:00:21;;;;;;;10.32;3.08;;;;;;;1.95;74.54;101157.03;5040804;28;20516;-68
2021/01/27 03:02:51;;;;;;;5.05;2.58;;;;;;;1.94;74.69;101153.63;5033821;28;20557;-69
2021/01/27 03:05:23;;;;;;;6.68;2.92;;;;;;;2.00;74.85;101158.03;5043365;28;20099;-68
2021/01/27 03:07:52;;;;;;;4.53;2.55;;;;;;;2.10;75.07;101142.00;5039078;28;20056;-67
2021/01/27 03:10:22;;;;;;;5.32;2.40;;;;;;;2.03;75.52;101137.59;5030975;28;20045;-68
2021/01/27 03:12:49;;;;;;;8.38;2.75;;;;;;;2.02;76.42;101133.28;5046713;28;20133;-67
2021/01/27 03:15:15;;;;;;;6.25;2.55;;;;;;;1.90;76.65;101125.31;5031286;28;20057;-68
2021/01/27 03:17:43;;;;;;;7.55;2.53;;;;;;;1.97;76.89;101122.03;5034117;28;20053;-67
2021/01/27 03:20:13;;;;;;;5.00;2.22;;;;;;;2.12;76.56;101122.41;5038917;28;20056;-68
2021/01/27 03:22:45;;;;;;;6.18;2.45;;;;;;;2.20;76.50;101119.13;5034950;28;20049;-68
2021/01/27 03:25:16;;;;;;;7.80;2.55;;;;;;;2.10;76.10;101128.31;5034198;28;20045;-68
2021/01/27 03:27:55;;;;;;;4.28;1.98;;;;;;;2.07;75.90;101118.00;5049319;28;20045;-70
2021/01/27 03:30:22;;;;;;;5.10;2.25;;;;;;;2.05;76.27;101112.81;5042456;28;20060;-68
2021/01/27 03:32:53;;;;;;;5.20;2.20;;;;;;;2.06;76.13;101099.16;5037342;28;20694;-68
2021/01/27 03:35:29;;;;;;;7.22;2.13;;;;;;;2.09;76.16;101073.56;5053947;28;20060;-68
2021/01/27 03:38:02;;;;;;;6.63;2.13;;;;;;;2.14;77.54;101069.41;5041011;28;20041;-69
2021/01/27 03:40:29;;;;;;;5.97;2.13;;;;;;;2.11;75.63;101073.59;5040275;28;20053;-69
2021/01/27 03:43:02;;;;;;;6.13;2.50;;;;;;;2.09;76.04;101073.56;5047481;28;20045;-68
2021/01/27 03:45:30;;;;;;;5.95;2.20;;;;;;;2.01;76.66;101080.25;5043880;28;20471;-68
2021/01/27 03:48:04;;;;;;;6.53;2.83;;;;;;;2.07;76.35;101082.91;5045833;28;20044;-68
2021/01/27 03:50:31;;;;;;;5.00;2.35;;;;;;;2.02;76.63;101074.28;5052424;28;20052;-68
2021/01/27 03:53:00;;;;;;;7.55;2.78;;;;;;;2.07;76.09;101070.09;5046595;28;20073;-68
2021/01/27 03:55:33;;;;;;;8.82;2.10;;;;;;;1.99;76.10;101080.22;5041117;28;20049;-73
2021/01/27 03:58:04;;;;;;;6.82;2.17;;;;;;;2.12;76.32;101071.06;5046846;28;20048;-68
2021/01/27 04:00:31;;;;;;;6.13;2.55;;;;;;;2.07;75.68;101064.09;5053298;28;20056;-68
2021/01/27 04:03:07;;;;;;;4.65;1.63;;;;;;;2.11;76.44;101064.19;5044114;28;20091;-68
2021/01/27 04:05:33;;;;;;;6.15;2.22;;;;;;;2.07;76.45;101059.81;5052650;28;20049;-69
2021/01/27 04:08:00;;;;;;;4.88;1.80;;;;;;;2.14;76.35;101064.28;5052873;28;20416;-71
2021/01/27 04:10:26;;;;;;;6.22;1.88;;;;;;;2.09;76.69;101059.88;5053316;28;20057;-69
2021/01/27 04:12:51;;;;;;;5.93;2.03;;;;;;;2.11;76.12;101059.06;5041912;28;20425;-68
2021/01/27 04:15:17;;;;;;;5.47;1.90;;;;;;;2.18;76.29;101047.25;5049064;28;20049;-69
2021/01/27 04:17:43;;;;;;;9.45;1.70;;;;;;;2.14;76.69;101036.06;5052062;28;20123;-70
2021/01/27 04:20:10;;;;;;;6.05;1.98;;;;;;;2.11;76.64;101028.28;5052263;28;20060;-68
2021/01/27 04:22:36;;;;;;;4.80;1.95;;;;;;;2.14;76.33;101030.03;5050893;28;20532;-69
2021/01/27 04:25:05;;;;;;;6.15;1.70;;;;;;;2.11;76.64;101029.97;5051654;28;20041;-69
2021/01/27 04:27:30;;;;;;;8.70;1.95;;;;;;;2.08;76.94;101028.22;5051323;28;20045;-69
2021/01/27 04:29:56;;;;;;;5.43;2.38;;;;;;;2.08;76.59;101017.94;5035658;28;20048;-70
2021/01/27 04:32:22;;;;;;;4.78;1.85;;;;;;;2.08;76.18;101006.81;5047020;28;20049;-70
2021/01/27 04:34:48;;;;;;;7.95;2.28;;;;;;;2.18;76.29;100990.78;5052530;28;20128;-71
2021/01/27 04:37:14;;;;;;;6.05;1.90;;;;;;;2.15;76.49;100983.00;5052044;28;20056;-69
2021/01/27 04:39:40;;;;;;;6.90;1.80;;;;;;;2.16;76.03;100985.59;5049278;28;20079;-69
2021/01/27 04:42:10;;;;;;;4.07;2.03;;;;;;;2.10;76.67;100974.34;5049829;28;20049;-71
2021/01/27 04:44:36;;;;;;;5.63;1.80;;;;;;;2.13;76.68;100969.28;5051558;28;20411;-70
2021/01/27 04:47:11;;;;;;;5.95;2.13;;;;;;;2.07;76.85;100966.59;5048513;28;20049;-69
2021/01/27 04:49:41;;;;;;;5.05;1.92;;;;;;;1.98;76.70;100959.59;5048892;28;20460;-69
2021/01/27 04:52:13;;;;;;;8.32;2.97;;;;;;;2.00;76.96;100957.91;5035532;28;20133;-70
2021/01/27 04:55:06;;;;;;;4.00;1.92;;;;;;;2.16;76.69;100965.06;5044952;28;20049;-68
2021/01/27 04:58:02;;;;;;;3.88;1.77;;;;;;;2.20;76.62;100954.88;5044870;28;20091;-70
2021/01/27 05:00:41;;;;;;;5.43;2.10;;;;;;;2.15;76.29;100954.78;5043446;28;20110;-69
2021/01/27 05:03:27;;;;;;;6.20;2.05;;;;;;;2.00;76.35;100957.91;5047983;28;20052;-69
2021/01/27 05:05:56;;;;;;;;;;;;;;;2.13;76.84;100947.06;5050034;28;20049;-68
2021/01/27 05:08:30;;;;;;;5.30;1.70;;;;;;;2.12;75.70;100932.50;5052603;28;19920;-72
2021/01/27 05:11:01;;;;;;;5.28;2.28;;;;;;;2.03;76.05;100924.63;5057834;28;20056;-67
2021/01/27 05:13:31;;;;;;;5.03;1.73;;;;;;;2.08;76.69;100929.84;5049661;28;20052;-69
2021/01/27 05:16:00;;;;;;;4.55;1.95;;;;;;;2.18;76.57;100919.78;5056744;28;20047;-69
2021/01/27 05:18:26;;;;;;;7.93;2.05;;;;;;;2.21;76.53;100920.66;5046950;28;20103;-67
2021/01/27 05:20:52;;;;;;;10.95;2.20;;;;;;;2.19;76.52;100907.81;5039198;28;20460;-69
2021/01/27 05:23:18;;;;;;;4.32;1.83;;;;;;;2.22;76.42;100904.44;5053737;28;20071;-69
2021/01/27 05:25:49;;;;;;;8.55;1.77;;;;;;;2.20;76.30;100908.69;5053463;28;20056;-68
2021/01/27 05:28:19;;;;;;;4.35;1.83;;;;;;;2.17;76.43;100918.03;5046021;28;20053;-68
2021/01/27 05:30:51;;;;;;;7.65;1.95;;;;;;;2.27;75.73;100897.66;5051825;28;20053;-68
2021/01/27 05:33:17;;;;;;;4.72;2.00;;;;;;;2.20;75.74;100891.56;5052716;28;20411;-68
2021/01/27 05:35:44;;;;;;;7.10;2.10;;;;;;;2.20;75.91;100885.56;5056841;28;20049;-68
2021/01/27 05:38:25;;;;;;;8.75;2.40;;;;;;;2.20;76.21;100872.75;5050804;28;20053;-69
2021/01/27 05:41:02;;;;;;;7.15;2.13;;;;;;;2.14;76.73;100884.66;5051660;28;20044;-68
2021/01/27 05:43:28;;;;;;;4.13;2.13;;;;;;;2.19;76.21;100879.59;5060067;28;20044;-69
2021/01/27 05:46:10;;;;;;;4.10;1.95;;;;;;;2.18;76.40;100886.41;5061285;28;20397;-69
2021/01/27 05:48:43;;;;;;;5.68;1.90;;;;;;;2.29;75.69;100880.59;5060060;28;20052;-68
2021/01/27 05:51:27;;;;;;;6.13;2.20;;;;;;;2.34;75.91;100886.69;5051467;28;20048;-69
2021/01/27 05:53:54;;;;;;;5.25;2.30;;;;;;;2.31;76.25;100876.38;5055645;28;20052;-68
2021/01/27 05:56:21;;;;;;;6.20;2.33;;;;;;;2.16;76.37;100869.28;5058412;28;20052;-72
2021/01/27 05:58:59;;;;;;;5.72;2.17;;;;;;;2.07;77.24;100876.81;5058315;28;20098;-68
2021/01/27 06:01:39;;;;;;;4.47;2.10;;;;;;;2.17;77.95;100866.72;5049670;28;22536;-68
2021/01/27 06:04:18;;;;;;;7.05;2.33;;;;;;;2.10;78.21;100867.44;5051462;28;20090;-68
2021/01/27 06:06:57;;;;;;;6.32;2.42;;;;;;;2.00;79.12;100861.28;5051059;28;20055;-69
2021/01/27 06:09:38;;;;;;;6.00;2.70;;;;;;;2.00;79.24;100865.56;5059817;28;20055;-69
2021/01/27 06:12:06;;;;;;;5.30;2.45;;;;;;;1.91;79.98;100871.38;5053089;28;20187;-69
2021/01/27 06:14:33;;;;;;;6.15;2.30;;;;;;;1.89;80.47;100877.31;5055184;28;20056;-71
2021/01/27 06:17:15;;;;;;;6.63;2.72;;;;;;;1.89;81.23;100867.94;5057568;28;20144;-68
2021/01/27 06:19:42;;;;;;;6.43;2.50;;;;;;;1.91;80.81;100862.84;5052419;28;20056;-68
2021/01/27 06:22:52;;;;;;;8.38;3.00;;;;;;;1.94;81.26;100844.94;5056209;28;20470;-68
2021/01/27 06:25:40;;;;;;;6.20;2.90;;;;;;;1.92;82.30;100846.59;5051130;28;20048;-68
2021/01/27 06:28:26;;;;;;;6.35;2.95;;;;;;;1.90;81.52;100833.72;5055175;28;20431;-71
2021/01/27 06:31:05;;;;;;;8.43;2.92;;;;;;;1.84;81.91;100834.50;5051996;28;20049;-68
2021/01/27 06:33:47;;;;;;;10.00;3.03;;;;;;;1.78;81.82;100830.97;5059305;28;20056;-69
2021/01/27 06:36:47;;;;;;;6.35;2.58;;;;;;;1.66;82.84;100829.91;5049020;28;20056;-70
2021/01/27 06:39:52;;;;;;;7.95;2.90;;;;;;;1.59;83.07;100824.63;5036159;28;20049;-68
2021/01/27 06:42:40;;;;;;;5.93;2.88;;;;;;;1.57;83.42;100821.16;5047950;28;20521;-68
2021/01/27 06:45:15;;;;;;;7.72;3.00;;;;;;;1.57;82.67;100816.03;5054883;28;20048;-70
2021/01/27 06:48:10;;;;;;;8.88;3.45;;;;;;;1.54;83.47;100807.47;5050357;28;20072;-69
2021/01/27 06:50:49;;;;;;;6.60;3.43;;;;;;;1.51;83.15;100804.84;5052674;28;20049;-70
2021/01/27 06:53:50;;;;;;;7.25;3.33;;;;;;;1.35;83.86;100807.91;5057760;28;20064;-73
2021/01/27 06:56:32;;;;;;;7.78;4.07;;;;;;;1.41;84.56;100808.06;5056960;28;20415;-69
2021/01/27 06:59:34;;;;;;;7.20;3.30;;;;;;;1.39;84.33;100813.16;5060592;28;20127;-68
2021/01/27 07:02:23;;;;;;;9.70;4.07;;;;;;;1.42;84.06;100809.78;5051998;28;20099;-69
2021/01/27 07:05:07;;;;;;;6.85;3.50;;;;;;;1.37;83.89;100806.25;5058488;28;20049;-70
2021/01/27 07:07:51;;;;;;;12.13;4.60;;;;;;;1.31;84.49;100801.03;5046281;28;20055;-71
2021/01/27 07:10:32;;;;;;;7.88;4.20;;;;;;;1.35;84.88;100803.69;5058679;28;20412;-69
2021/01/27 07:13:07;;;;;;;8.15;3.63;;;;;;;1.36;84.12;100802.84;5060974;28;20059;-69
2021/01/27 07:15:53;;;;;;;10.65;4.18;;;;;;;1.30;84.51;100801.84;5046078;28;20420;-69
2021/01/27 07:18:41;;;;;;;7.57;4.28;;;;;;;1.22;84.76;100810.25;5053340;28;20057;-71
2021/01/27 07:21:14;;;;;;;7.65;4.47;;;;;;;1.30;84.64;100812.97;5049458;28;20060;-70
2021/01/27 07:23:55;;;;;;;8.77;4.10;;;;;;;1.32;84.61;100803.59;5055439;28;20040;-69
2021/01/27 07:26:25;;;;;;;11.43;4.90;;;;;;;1.26;84.87;100816.31;5059301;28;20056;-71
2021/01/27 07:28:57;;;;;;;6.82;4.13;;;;;;;1.30;85.04;100814.66;5057294;28;20072;-71
2021/01/27 07:31:28;;;;;;;12.68;5.88;;;;;;;1.32;85.38;100813.00;5054813;28;20049;-71
2021/01/27 07:33:58;;;;;;;8.98;5.00;;;;;;;1.37;84.82;100817.38;5057596;28;20045;-70
2021/01/27 07:36:34;;;;;;;8.50;4.82;;;;;;;1.37;84.55;100819.94;5061409;28;20052;-69
2021/01/27 07:39:06;;;;;;;9.07;5.25;;;;;;;1.38;85.01;100823.38;5053261;28;20537;-71
2021/01/27 07:41:43;;;;;;;10.40;5.30;;;;;;;1.36;84.96;100814.78;5062402;28;20052;-70
2021/01/27 07:44:15;;;;;;;9.55;5.05;;;;;;;1.38;85.51;100802.88;5055728;28;20072;-68
2021/01/27 07:46:46;;;;;;;6.63;3.90;;;;;;;1.38;84.83;100802.88;5061092;28;20538;-71
2021/01/27 07:49:19;;;;;;;8.50;5.53;;;;;;;1.40;84.62;100816.56;5058533;28;20056;-71
2021/01/27 07:51:51;;;;;;;7.47;4.68;;;;;;;1.38;84.88;100803.75;5051054;28;20064;-71
2021/01/27 07:54:26;;;;;;;8.15;4.70;;;;;;;1.28;84.97;100812.09;5046830;28;20072;-70
2021/01/27 07:56:56;;;;;;;8.38;4.75;;;;;;;1.35;85.28;100815.59;5049377;28;20049;-71
2021/01/27 07:59:29;;;;;;;10.50;4.90;;;;;;;1.26;85.43;100826.56;5049795;28;20060;-72
2021/01/27 08:01:58;;;;;;;7.97;4.80;;;;;;;1.29;85.35;100823.19;5053758;28;20431;-71
2021/01/27 08:04:33;;;;;;;6.93;4.43;;;;;;;1.28;85.33;100816.31;5060988;28;20576;-71
2021/01/27 08:07:00;;;;;;;7.53;4.47;;;;;;;1.34;85.00;100811.34;5061299;28;20083;-72
2021/01/27 08:09:34;;;;;;;8.45;4.70;;;;;;;1.33;85.59;100814.75;5055273;28;20414;-71
2021/01/27 08:12:12;;;;;;;8.55;4.45;;;;;;;1.37;85.27;100807.13;5052050;28;20842;-71
2021/01/27 08:15:01;;;;;;;7.75;4.78;;;;;;;1.40;85.67;100808.88;5056750;28;20496;-70
2021/01/27 08:17:39;;;;;;;9.02;4.70;;;;;;;1.43;85.09;100806.41;5060339;28;20044;-71
2021/01/27 08:20:19;;;;;;;7.88;5.05;;;;;;;1.43;85.21;100808.97;5041066;28;20099;-71
2021/01/27 08:22:48;;;;;;;10.30;4.75;;;;;;;1.45;85.15;100809.81;5055984;28;20068;-73
2021/01/27 08:25:48;;;;;;;9.52;5.40;;;;;;;1.43;85.10;100818.31;5059150;28;20507;-74
2021/01/27 08:28:20;;;;;;;7.43;4.45;;;;;;;1.49;85.42;100815.91;5046338;28;20053;-71
2021/01/27 08:31:20;;;;;;;7.57;4.63;;;;;;;1.49;85.46;100811.63;5053411;28;20439;-73
2021/01/27 08:33:58;;;;;;;9.05;5.35;;;;;;;1.44;85.27;100818.38;5047123;28;20060;-71
2021/01/27 08:37:03;;;;;;;7.93;5.22;;;;;;;1.52;85.65;100791.19;5060482;28;20056;-71
2021/01/27 08:39:30;;;;;;;9.82;5.93;;;;;;;1.52;85.50;100774.94;5049280;28;20531;-70
2021/01/27 08:42:00;;;;;;;10.93;5.43;;;;;;;1.50;85.85;100763.78;5050997;28;20045;-69
2021/01/27 08:44:33;;;;;;;7.70;5.03;;;;;;;1.52;85.53;100760.44;5053865;28;20045;-71
2021/01/27 08:47:02;;;;;;;9.57;4.32;;;;;;;1.62;85.92;100768.28;5052988;28;20049;-71
2021/01/27 08:49:51;;;;;;;20.63;9.90;;;;;;;1.89;91.31;100759.34;5053328;28;20048;-70
2021/01/27 08:52:38;;;;;;;9.60;5.72;;;;;;;2.03;90.05;100768.13;5050764;28;20055;-70
2021/01/27 08:55:37;;;;;;;12.45;6.32;;;;;;;2.02;85.92;100756.16;5053866;28;20055;-70
2021/01/27 08:58:38;;;;;;;7.78;4.78;;;;;;;1.89;84.85;100746.50;5054087;28;20048;-71
2021/01/27 09:01:37;;;;;;;7.80;4.65;;;;;;;1.90;85.07;100745.66;5053632;28;20080;-71
2021/01/27 09:04:04;;;;;;;9.95;5.20;;;;;;;1.85;85.43;100733.63;5032387;28;20049;-72
2021/01/27 09:06:44;;;;;;;8.25;4.78;;;;;;;1.88;85.75;100740.53;5043983;28;20099;-70
2021/01/27 09:09:23;;;;;;;11.23;5.75;;;;;;;2.01;85.67;100739.03;5060282;28;20044;-70
2021/01/27 09:11:56;;;;;;;8.45;5.40;;;;;;;1.97;85.33;100744.94;5051240;28;20071;-70
2021/01/27 09:14:22;;;;;;;7.93;4.80;;;;;;;1.99;85.49;100745.81;5041359;28;20048;-71
2021/01/27 09:16:48;;;;;;;10.32;4.93;;;;;;;1.96;85.75;100748.31;5044937;28;20065;-70
2021/01/27 09:19:19;;;;;;;7.68;4.53;;;;;;;1.99;85.72;100743.25;5056213;28;20111;-70
2021/01/27 09:22:03;;;;;;;7.25;4.53;;;;;;;2.00;85.71;100748.41;5062146;28;20049;-70
2021/01/27 09:24:36;;;;;;;8.10;4.75;;;;;;;1.96;85.99;100753.47;5056295;28;20049;-72
2021/01/27 09:27:13;;;;;;;8.23;4.80;;;;;;;1.99;86.05;100758.66;5056909;28;20611;-72
2021/01/27 09:29:39;;;;;;;7.97;4.40;;;;;;;2.02;86.45;100758.72;5054141;28;20049;-69
2021/01/27 09:32:14;;;;;;;10.32;4.70;;;;;;;2.11;85.40;100765.66;5056522;28;20067;-69
2021/01/27 09:34:41;;;;;;;9.75;4.60;;;;;;;2.00;85.84;100770.63;5051689;28;20455;-69
2021/01/27 09:37:12;;;;;;;9.75;4.68;;;;;;;2.06;86.26;100768.16;5052166;28;20056;-70
2021/01/27 09:39:39;;;;;;;10.35;4.57;;;;;;;2.15;86.45;100763.19;5039645;28;20057;-70
2021/01/27 09:42:17;;;;;;;8.57;4.28;;;;;;;2.12;86.35;100769.97;5059221;28;20044;-69
2021/01/27 09:44:45;;;;;;;11.00;4.28;;;;;;;2.19;86.67;100764.13;5059312;28;20044;-72
2021/01/27 09:47:14;;;;;;;7.97;4.80;;;;;;;2.16;86.94;100764.91;5059637;28;20424;-70
2021/01/27 09:49:46;;;;;;;13.43;5.82;;;;;;;2.24;86.59;100759.91;5053278;28;20055;-69
2021/01/27 09:52:14;;;;;;;12.23;6.93;;;;;;;2.31;86.59;100769.41;5055811;28;20106;-67
2021/01/27 09:54:43;;;;;;;12.25;6.68;;;;;;;2.41;86.83;100775.56;5044246;28;20131;-68
2021/01/27 09:57:12;;;;;;;9.18;5.93;;;;;;;2.56;85.67;100768.91;5057721;28;20052;-68
2021/01/27 09:59:39;;;;;;;9.13;5.25;;;;;;;2.52;86.12;100769.72;5056987;28;20523;-70
2021/01/27 10:02:10;;;;;;;9.80;4.53;;;;;;;2.47;86.01;100779.94;5049390;28;20527;-67
2021/01/27 10:04:39;;;;;;;9.35;4.75;;;;;;;2.36;86.42;100778.91;5051538;28;20052;-69
2021/01/27 10:07:10;;;;;;;10.48;4.93;;;;;;;2.45;86.77;100784.16;5053657;28;20061;-68
2021/01/27 10:09:43;;;;;;;11.07;4.45;;;;;;;2.47;86.79;100792.75;5057096;28;20051;-67
2021/01/27 10:12:17;;;;;;;8.80;4.38;;;;;;;2.55;86.86;100792.84;5053409;28;20131;-68
2021/01/27 10:14:44;;;;;;;8.77;3.88;;;;;;;2.51;86.57;100796.25;5054006;28;20143;-68
2021/01/27 10:17:11;;;;;;;7.05;3.88;;;;;;;2.53;86.90;100792.00;5057994;28;20476;-67
2021/01/27 10:19:46;;;;;;;8.60;4.22;;;;;;;2.54;86.76;100792.00;5057716;28;20045;-68
2021/01/27 10:22:13;;;;;;;7.57;4.07;;;;;;;2.60;86.61;100797.22;5057802;28;20404;-68
2021/01/27 10:24:51;;;;;;;9.38;4.70;;;;;;;2.64;86.31;100793.00;5055522;28;20522;-68
2021/01/27 10:27:24;;;;;;;8.13;4.13;;;;;;;2.56;87.03;100794.59;5042933;28;20055;-67
2021/01/27 10:29:51;;;;;;;8.05;3.97;;;;;;;2.63;87.70;100799.84;5048989;28;22435;-68
2021/01/27 10:32:21;;;;;;;6.90;4.18;;;;;;;2.77;87.20;100799.19;5052083;28;20060;-67
2021/01/27 10:34:48;;;;;;;5.43;3.50;;;;;;;2.74;86.96;100794.88;5059639;28;20072;-68
2021/01/27 10:37:33;;;;;;;5.22;2.95;;;;;;;2.73;86.72;100798.28;5061943;28;20045;-67
2021/01/27 10:40:19;;;;;;;5.10;3.25;;;;;;;2.60;87.40;100802.34;5061695;28;20041;-68
2021/01/27 10:42:48;;;;;;;4.88;2.90;;;;;;;2.64;88.01;100798.16;5055125;28;20512;-68
2021/01/27 10:45:36;;;;;;;5.78;2.90;;;;;;;2.80;88.53;100797.50;5049446;28;20048;-67
2021/01/27 10:48:23;;;;;;;4.95;3.10;;;;;;;2.79;87.70;100795.78;5052553;28;20041;-70
2021/01/27 10:50:51;;;;;;;6.18;2.60;;;;;;;2.83;87.93;100790.69;5055214;28;20049;-67
2021/01/27 10:53:20;;;;;;;6.55;2.90;;;;;;;2.84;88.10;100790.72;5060858;28;20059;-68
2021/01/27 10:55:52;;;;;;;5.97;2.95;;;;;;;2.89;87.43;100795.91;5060446;28;20056;-68
2021/01/27 10:58:18;;;;;;;5.95;3.08;;;;;;;2.85;87.75;100789.00;5058578;28;20041;-68
2021/01/27 11:00:45;;;;;;;4.20;2.60;;;;;;;2.86;87.66;100783.00;5060654;28;20053;-68
2021/01/27 11:03:13;;;;;;;4.32;2.60;;;;;;;2.87;87.54;100788.19;5057575;28;20059;-63
2021/01/27 11:05:40;;;;;;;4.68;2.80;;;;;;;2.77;87.71;100787.19;5046056;28;20041;-63
2021/01/27 11:08:08;;;;;;;4.75;3.30;;;;;;;2.74;87.83;100782.03;5047060;28;20049;-62
2021/01/27 11:10:35;;;;;;;5.57;3.65;;;;;;;2.78;88.47;100780.38;5056261;28;20532;-65
2021/01/27 11:13:01;;;;;;;5.22;3.38;;;;;;;2.80;88.06;100779.53;5066249;28;20509;-66
2021/01/27 11:15:27;;;;;;;8.05;4.20;;;;;;;2.87;88.34;100783.06;5046573;28;20045;-65
2021/01/27 11:17:53;;;;;;;8.30;5.50;;;;;;;2.89;87.85;100778.81;5040065;28;20103;-66
2021/01/27 11:20:22;;;;;;;6.22;4.13;;;;;;;2.98;87.78;100777.19;5046601;28;20048;-65
2021/01/27 11:22:49;;;;;;;10.02;5.72;;;;;;;3.03;87.18;100783.22;5048426;28;20044;-64
2021/01/27 11:25:17;;;;;;;9.18;4.70;;;;;;;3.01;88.23;100780.66;5064486;28;20088;-65
2021/01/27 11:27:44;;;;;;;5.85;4.10;;;;;;;2.97;88.12;100776.31;5041209;28;20053;-65
2021/01/27 11:30:12;;;;;;;6.40;3.53;;;;;;;3.00;87.58;100771.22;5052872;28;20057;-65
2021/01/27 11:32:38;;;;;;;6.15;4.05;;;;;;;3.03;87.87;100768.69;5050440;28;20094;-64
2021/01/27 11:35:06;;;;;;;5.60;3.85;;;;;;;3.07;87.73;100767.03;5046184;28;20053;-64
2021/01/27 11:37:32;;;;;;;6.10;3.83;;;;;;;3.08;88.23;100763.59;5043489;28;20659;-65
2021/01/27 11:39:58;;;;;;;8.07;3.75;;;;;;;3.09;87.82;100761.06;5046584;28;20135;-64
2021/01/27 11:42:24;;;;;;;6.38;4.18;;;;;;;3.15;87.60;100755.13;5043709;28;20064;-65
2021/01/27 11:44:51;;;;;;;5.57;3.80;;;;;;;3.15;87.84;100749.09;5047490;28;20051;-65
2021/01/27 11:47:17;;;;;;;5.72;3.70;;;;;;;3.11;87.91;100746.50;5052986;28;20048;-63
2021/01/27 11:49:46;;;;;;;10.13;4.20;;;;;;;3.36;87.46;100739.06;5043548;28;20053;-64
2021/01/27 11:52:12;;;;;;;6.20;4.15;;;;;;;3.23;87.74;100730.34;5047377;28;20052;-64
2021/01/27 11:54:38;;;;;;;7.70;4.10;;;;;;;3.36;87.49;100731.34;5040739;28;20049;-65
2021/01/27 11:57:06;;;;;;;7.32;4.70;;;;;;;3.33;87.63;100733.91;5060061;28;20041;-65
2021/01/27 11:59:32;;;;;;;5.88;3.90;;;;;;;3.38;87.47;100729.66;5050493;28;20363;-64
2021/01/27 12:02:00;;;;;;;8.07;3.83;;;;;;;3.38;87.92;100731.38;5061010;28;20080;-66